createdAt,value
2019-04-25T00:00:51.847Z,99562.15
2019-04-25T00:03:55.754Z,99564.96
2019-04-25T00:06:59.283Z,99578.81
2019-04-25T00:10:02.797Z,99587.44
2019-04-25T00:13:06.880Z,99584.44
2019-04-25T00:16:11.693Z,99588.92
2019-04-25T00:19:15.412Z,99606.73
2019-04-25T00:22:26.312Z,99610.41
2019-04-25T00:25:57.811Z,99610.41
2019-04-25T00:29:01.963Z,99611.40
2019-04-25T00:32:06.622Z,99605.73
2019-04-25T00:35:11.725Z,99600.39
2019-04-25T00:38:15.402Z,99603.06
2019-04-25T00:41:18.836Z,99605.36
2019-04-25T00:44:22.442Z,99601.73
2019-04-25T00:47:26.956Z,99602.69
2019-04-25T00:50:31.916Z,99599.69
2019-04-25T00:53:36.433Z,99598.02
2019-04-25T00:56:39.846Z,99587.34
2019-04-25T00:59:54.081Z,99597.16
2019-04-25T01:02:57.783Z,99610.35
2019-04-25T01:06:03.486Z,99608.68
2019-04-25T01:09:12.473Z,99610.02
2019-04-25T01:12:16.030Z,99614.64
2019-04-25T01:15:21.387Z,99621.31
2019-04-25T01:18:25.209Z,99631.97
2019-04-25T01:21:28.798Z,99632.12
2019-04-25T01:24:33.913Z,99628.63
2019-04-25T01:27:37.576Z,99645.97
2019-04-25T01:30:41.178Z,99644.63
2019-04-25T01:33:44.677Z,99652.63
2019-04-25T01:36:56.992Z,99655.92
2019-04-25T01:40:26.820Z,99674.92
2019-04-25T01:43:45.217Z,99677.39
2019-04-25T01:46:48.649Z,99674.25
2019-04-25T01:49:52.841Z,99676.91
2019-04-25T01:52:57.497Z,99670.88
2019-04-25T01:56:05.250Z,99674.88
2019-04-25T01:59:07.168Z,99676.54
2019-04-25T02:02:14.088Z,99676.20
2019-04-25T02:05:17.561Z,99684.69
2019-04-25T02:08:21.364Z,99695.48
2019-04-25T02:11:43.953Z,99695.48
2019-04-25T02:14:48.883Z,99703.48
2019-04-25T02:17:57.175Z,99716.14
2019-04-25T02:21:01.332Z,99716.48
2019-04-25T02:24:05.701Z,99733.47
2019-04-25T02:27:09.304Z,99722.80
2019-04-25T02:30:15.500Z,99715.42
2019-04-25T02:33:19.256Z,99719.42
2019-04-25T02:36:24.688Z,99730.09
2019-04-25T02:39:28.991Z,99732.76
2019-04-25T02:42:34.343Z,99738.09
2019-04-25T02:46:08.074Z,99743.08
2019-04-25T02:49:36.885Z,99740.41
2019-04-25T02:52:40.282Z,99741.41
2019-04-25T02:55:44.806Z,99743.70
2019-04-25T02:58:49.755Z,99747.70
2019-04-25T03:01:54.129Z,99747.36
2019-04-25T03:04:59.292Z,99750.88
2019-04-25T03:08:08.004Z,99743.36
2019-04-25T03:11:09.355Z,99743.36
2019-04-25T03:14:14.685Z,99740.33
2019-04-25T03:17:18.319Z,99739.47
2019-04-25T03:20:40.167Z,99738.65
2019-04-25T03:23:46.333Z,99735.98
2019-04-25T03:26:49.250Z,99750.27
2019-04-25T03:29:54.147Z,99742.27
2019-04-25T03:32:58.752Z,99750.27
2019-04-25T03:36:03.540Z,99749.59
2019-04-25T03:39:08.695Z,99752.94
2019-04-25T03:42:13.990Z,99761.59
2019-04-25T03:45:17.693Z,99769.07
2019-04-25T03:48:21.173Z,99772.59
2019-04-25T03:51:24.674Z,99779.73
2019-04-25T03:54:28.178Z,99788.73
2019-04-25T03:57:33.095Z,99780.86
2019-04-25T04:00:36.619Z,99780.86
2019-04-25T04:03:40.127Z,99794.20
2019-04-25T04:06:44.087Z,99795.53
2019-04-25T04:09:47.637Z,99790.33
2019-04-25T04:12:51.235Z,99785.34
2019-04-25T04:15:54.738Z,99784.19
2019-04-25T04:18:58.664Z,99789.86
2019-04-25T04:22:16.251Z,99788.18
2019-04-25T04:25:20.376Z,99791.80
2019-04-25T04:28:23.786Z,99809.64
2019-04-25T04:31:27.526Z,99810.98
2019-04-25T04:34:31.015Z,99812.78
2019-04-25T04:37:34.596Z,99814.60
2019-04-25T04:40:38.097Z,99810.60
2019-04-25T04:43:41.514Z,99806.12
2019-04-25T04:46:45.131Z,99813.64
2019-04-25T04:49:48.608Z,99827.11
2019-04-25T04:52:53.922Z,99829.77
2019-04-25T04:55:57.456Z,99827.11
2019-04-25T04:59:00.971Z,99823.11
2019-04-25T05:02:33.364Z,99822.73
2019-04-25T05:05:51.240Z,99825.77
2019-04-25T05:08:58.576Z,99828.58
2019-04-25T05:12:04.081Z,99838.38
2019-04-25T05:15:07.606Z,99835.72
2019-04-25T05:18:11.504Z,99842.38
2019-04-25T05:21:17.149Z,99855.37
2019-04-25T05:24:20.879Z,99860.56
2019-04-25T05:27:37.310Z,99871.70
2019-04-25T05:30:37.629Z,99868.56
2019-04-25T05:33:41.251Z,99873.03
2019-04-25T05:36:45.002Z,99872.18
2019-04-25T05:39:48.524Z,99880.55
2019-04-25T05:43:00.861Z,99875.36
2019-04-25T05:46:06.396Z,99874.02
2019-04-25T05:49:09.884Z,99874.98
2019-04-25T05:52:13.963Z,99882.84
2019-04-25T05:55:19.883Z,99891.83
2019-04-25T05:58:24.838Z,99897.02
2019-04-25T06:01:30.136Z,99898.97
2019-04-25T06:04:33.719Z,99906.70
2019-04-25T06:07:37.258Z,99910.48
2019-04-25T06:10:48.177Z,99904.30
2019-04-25T06:14:01.418Z,99908.16
2019-04-25T06:17:08.175Z,99915.81
2019-04-25T06:20:13.442Z,99909.63
2019-04-25T06:23:42.005Z,99918.00
2019-04-25T06:26:55.636Z,99925.02
2019-04-25T06:30:04.351Z,99933.63
2019-04-25T06:33:08.948Z,99932.66
2019-04-25T06:36:13.886Z,99935.33
2019-04-25T06:39:17.529Z,99939.33
2019-04-25T06:42:21.149Z,99944.66
2019-04-25T06:45:34.504Z,99953.13
2019-04-25T06:48:45.675Z,99953.13
2019-04-25T06:51:50.251Z,99961.00
2019-04-25T06:54:53.655Z,99952.28
2019-04-25T06:58:08.880Z,99961.13
2019-04-25T07:01:03.422Z,99971.66
2019-04-25T07:04:07.228Z,99971.66
2019-04-25T07:07:13.099Z,99970.67
2019-04-25T07:10:15.935Z,99975.87
2019-04-25T07:13:19.336Z,99976.45
2019-04-25T07:16:24.201Z,99969.79
2019-04-25T07:19:30.318Z,99964.80
2019-04-25T07:22:35.306Z,99971.55
2019-04-25T07:25:43.768Z,99973.26
2019-04-25T07:28:59.091Z,99966.22
2019-04-25T07:32:14.490Z,99969.98
2019-04-25T07:35:18.158Z,99976.75
2019-04-25T07:38:21.650Z,99989.12
2019-04-25T07:41:26.009Z,99993.36
2019-04-25T07:44:45.370Z,99992.64
2019-04-25T07:47:35.455Z,99996.98
2019-04-25T07:50:40.976Z,99996.03
2019-04-25T07:53:44.479Z,99998.42
2019-04-25T07:56:49.004Z,100000.58
2019-04-25T07:59:53.718Z,99990.91
2019-04-25T08:02:57.450Z,99988.72
2019-04-25T08:06:03.073Z,99994.77
2019-04-25T08:09:08.620Z,99995.77
2019-04-25T08:12:13.342Z,100000.23
2019-04-25T08:15:34.935Z,99998.31
2019-04-25T08:18:38.977Z,99999.89
2019-04-25T08:21:44.955Z,99997.09
2019-04-25T08:24:48.515Z,99998.12
2019-04-25T08:27:53.528Z,100001.17
2019-04-25T08:30:58.439Z,100004.05
2019-04-25T08:34:03.594Z,99999.91
2019-04-25T08:37:17.342Z,99985.25
2019-04-25T08:40:13.709Z,99994.58
2019-04-25T08:43:17.362Z,99988.13
2019-04-25T08:46:20.862Z,99983.30
2019-04-25T08:49:44.286Z,99988.33
2019-04-25T08:52:48.962Z,99975.72
2019-04-25T08:56:03.949Z,99982.39
2019-04-25T08:59:34.182Z,99982.73
2019-04-25T09:02:50.653Z,99977.05
2019-04-25T09:05:54.456Z,99981.91
2019-04-25T09:08:57.861Z,99980.06
2019-04-25T09:12:01.373Z,99977.77
2019-04-25T09:15:06.002Z,99974.45
2019-04-25T09:18:09.606Z,99977.47
2019-04-25T09:21:13.783Z,99977.33
2019-04-25T09:24:17.411Z,99962.66
2019-04-25T09:27:23.500Z,99971.52
2019-04-25T09:30:27.093Z,99966.90
2019-04-25T09:33:30.596Z,99966.25
2019-04-25T09:36:34.082Z,99960.03
2019-04-25T09:39:53.754Z,99957.84
2019-04-25T09:42:57.514Z,99956.71
2019-04-25T09:46:13.152Z,99960.03
2019-04-25T09:49:23.790Z,99949.05
2019-04-25T09:52:27.424Z,99945.05
2019-04-25T09:55:44.412Z,99941.91
2019-04-25T09:59:04.747Z,99942.76
2019-04-25T10:02:08.518Z,99936.43
2019-04-25T10:05:11.920Z,99927.57
2019-04-25T10:08:15.506Z,99927.67
2019-04-25T10:11:18.957Z,99927.36
2019-04-25T10:14:47.570Z,99931.37
2019-04-25T10:17:50.333Z,99928.87
2019-04-25T10:20:54.224Z,99924.15
2019-04-25T10:23:57.749Z,99913.00
2019-04-25T10:27:01.262Z,99914.67
2019-04-25T10:30:16.854Z,99913.20
2019-04-25T10:33:14.196Z,99903.59
2019-04-25T10:36:17.697Z,99894.25
2019-04-25T10:39:22.546Z,99888.97
2019-04-25T10:42:26.122Z,99884.31
2019-04-25T10:45:29.625Z,99888.31
2019-04-25T10:48:34.393Z,99883.36
2019-04-25T10:51:38.062Z,99885.75
2019-04-25T10:54:41.559Z,99874.45
2019-04-25T10:57:45.570Z,99871.16
2019-04-25T11:00:51.353Z,99874.51
2019-04-25T11:04:04.731Z,99872.21
2019-04-25T11:07:08.281Z,99871.56
2019-04-25T11:10:12.057Z,99878.60
2019-04-25T11:13:15.601Z,99870.59
2019-04-25T11:16:19.272Z,99868.33
2019-04-25T11:19:23.875Z,99860.52
2019-04-25T11:22:27.438Z,99865.23
2019-04-25T11:25:30.902Z,99865.09
2019-04-25T11:28:35.553Z,99863.70
2019-04-25T11:31:47.381Z,99863.52
2019-04-25T11:34:51.122Z,99863.75
2019-04-25T11:37:56.913Z,99863.37
2019-04-25T11:41:07.795Z,99859.47
2019-04-25T11:44:11.371Z,99860.66
2019-04-25T11:47:15.492Z,99862.19
2019-04-25T11:50:20.219Z,99854.03
2019-04-25T11:53:25.042Z,99854.23
2019-04-25T11:56:28.659Z,99852.75
2019-04-25T11:59:34.153Z,99845.59
2019-04-25T12:02:37.735Z,99841.93
2019-04-25T12:05:41.196Z,99838.27
2019-04-25T12:08:46.573Z,99840.31
2019-04-25T12:11:49.944Z,99835.64
2019-04-25T12:14:54.355Z,99825.67
2019-04-25T12:17:58.493Z,99813.00
2019-04-25T12:21:02.001Z,99813.00
2019-04-25T12:24:06.133Z,99815.89
2019-04-25T12:27:09.642Z,99805.55
2019-04-25T12:30:13.986Z,99804.41
2019-04-25T12:33:20.964Z,99797.58
2019-04-25T12:36:24.009Z,99801.44
2019-04-25T12:39:27.844Z,99800.16
2019-04-25T12:42:31.389Z,99798.81
2019-04-25T12:45:47.557Z,99798.86
2019-04-25T12:48:51.714Z,99787.55
2019-04-25T12:51:55.218Z,99780.87
2019-04-25T12:54:58.723Z,99786.95
2019-04-25T12:58:03.509Z,99782.28
2019-04-25T13:01:07.375Z,99776.45
2019-04-25T13:04:10.876Z,99764.91
2019-04-25T13:07:14.439Z,99779.31
2019-04-25T13:10:17.936Z,99764.95
2019-04-25T13:13:22.266Z,99756.64
2019-04-25T13:16:26.989Z,99749.48
2019-04-25T13:19:31.453Z,99750.16
2019-04-25T13:22:40.472Z,99754.02
2019-04-25T13:25:44.223Z,99747.04
2019-04-25T13:29:21.291Z,99741.36
2019-04-25T13:32:47.921Z,99739.88
2019-04-25T13:35:57.640Z,99735.75
2019-04-25T13:39:02.239Z,99727.44
2019-04-25T13:42:06.747Z,99721.24
2019-04-25T13:45:10.331Z,99721.13
2019-04-25T13:48:13.899Z,99718.86
2019-04-25T13:51:17.328Z,99714.14
2019-04-25T13:54:20.926Z,99706.16
2019-04-25T13:57:26.212Z,99703.48
2019-04-25T14:00:30.838Z,99700.48
2019-04-25T14:03:35.698Z,99693.16
2019-04-25T14:06:39.358Z,99694.34
2019-04-25T14:09:44.612Z,99692.16
2019-04-25T14:12:48.338Z,99694.52
2019-04-25T14:16:09.713Z,99694.86
2019-04-25T14:19:44.648Z,99687.17
2019-04-25T14:22:48.515Z,99684.86
2019-04-25T14:25:52.990Z,99682.38
2019-04-25T14:28:56.483Z,99680.89
2019-04-25T14:31:59.984Z,99672.34
2019-04-25T14:35:03.637Z,99672.56
2019-04-25T14:38:07.204Z,99670.55
2019-04-25T14:41:12.810Z,99657.55
2019-04-25T14:44:16.236Z,99663.56
2019-04-25T14:47:20.768Z,99653.23
2019-04-25T14:50:25.516Z,99653.59
2019-04-25T14:53:29.208Z,99651.25
2019-04-25T14:56:43.102Z,99651.95
2019-04-25T14:59:46.736Z,99647.27
2019-04-25T15:02:50.275Z,99646.78
2019-04-25T15:05:53.858Z,99635.93
2019-04-25T15:08:57.362Z,99634.59
2019-04-25T15:12:01.887Z,99640.12
2019-04-25T15:15:06.510Z,99632.58
2019-04-25T15:18:10.139Z,99631.94
2019-04-25T15:21:13.634Z,99625.59
2019-04-25T15:24:17.221Z,99628.27
2019-04-25T15:27:20.823Z,99627.25
2019-04-25T15:30:29.273Z,99626.28
2019-04-25T15:33:33.135Z,99620.94
2019-04-25T15:36:42.834Z,99612.75
2019-04-25T15:39:58.089Z,99618.92
2019-04-25T15:43:18.124Z,99617.95
2019-04-25T15:46:25.983Z,99615.45
2019-04-25T15:49:31.257Z,99612.93
2019-04-25T15:52:34.857Z,99613.09
2019-04-25T15:55:38.664Z,99611.27
2019-04-25T15:58:44.909Z,99604.58
2019-04-25T16:01:48.518Z,99603.23
2019-04-25T16:04:52.000Z,99593.19
2019-04-25T16:07:56.557Z,99599.38
2019-04-25T16:11:00.017Z,99594.67
2019-04-25T16:14:03.407Z,99608.90
2019-04-25T16:17:07.038Z,99603.19
2019-04-25T16:20:10.576Z,99612.91
2019-04-25T16:23:14.080Z,99609.54
2019-04-25T16:26:18.889Z,99606.53
2019-04-25T16:29:23.262Z,99610.22
2019-04-25T16:32:26.813Z,99612.53
2019-04-25T16:35:33.502Z,99612.53
2019-04-25T16:38:37.039Z,99611.17
2019-04-25T16:41:44.046Z,99614.69
2019-04-25T16:44:50.516Z,99618.86
2019-04-25T16:47:56.719Z,99616.83
2019-04-25T16:51:00.349Z,99616.83
2019-04-25T16:54:06.040Z,99618.16
2019-04-25T16:57:12.220Z,99617.83
2019-04-25T17:00:39.031Z,99617.25
2019-04-25T17:03:44.218Z,99620.45
2019-04-25T17:06:48.720Z,99618.41
2019-04-25T17:09:52.329Z,99624.92
2019-04-25T17:12:55.905Z,99635.46
2019-04-25T17:16:10.612Z,99624.74
2019-04-25T17:19:18.684Z,99625.56
2019-04-25T17:22:22.194Z,99618.06
2019-04-25T17:25:26.085Z,99610.34
2019-04-25T17:28:31.397Z,99622.38
2019-04-25T17:32:02.098Z,99621.04
2019-04-25T17:35:23.112Z,99620.34
2019-04-25T17:38:48.932Z,99617.64
2019-04-25T17:41:52.423Z,99616.98
2019-04-25T17:44:55.921Z,99617.12
2019-04-25T17:47:59.449Z,99612.27
2019-04-25T17:51:02.940Z,99615.80
2019-04-25T17:54:06.920Z,99613.91
2019-04-25T17:57:11.366Z,99614.25
2019-04-25T18:00:23.089Z,99610.91
2019-04-25T18:03:27.659Z,99600.88
2019-04-25T18:06:33.285Z,99607.91
2019-04-25T18:09:38.681Z,99606.72
2019-04-25T18:12:42.275Z,99605.88
2019-04-25T18:16:16.774Z,99602.86
2019-04-25T18:19:25.196Z,99601.86
2019-04-25T18:22:56.945Z,99609.18
2019-04-25T18:26:07.886Z,99612.86
2019-04-25T18:29:12.844Z,99612.52
2019-04-25T18:32:16.430Z,99608.00
2019-04-25T18:35:25.131Z,99611.83
2019-04-25T18:38:37.549Z,99608.79
2019-04-25T18:41:46.670Z,99606.61
2019-04-25T18:44:50.230Z,99606.42
2019-04-25T18:47:53.838Z,99606.42
2019-04-25T18:50:57.376Z,99607.42
2019-04-25T18:54:39.436Z,99602.90
2019-04-25T18:57:47.288Z,99610.73
2019-04-25T19:01:05.515Z,99605.05
2019-04-25T19:04:33.948Z,99611.44
2019-04-25T19:07:43.540Z,99610.09
2019-04-25T19:10:47.177Z,99613.73
2019-04-25T19:13:51.811Z,99607.06
2019-04-25T19:16:55.295Z,99602.39
2019-04-25T19:19:58.798Z,99602.72
2019-04-25T19:23:04.348Z,99609.40
2019-04-25T19:26:08.861Z,99606.72
2019-04-25T19:29:12.393Z,99610.03
2019-04-25T19:32:15.887Z,99607.06
2019-04-25T19:35:19.377Z,99606.03
2019-04-25T19:38:22.879Z,99607.73
2019-04-25T19:41:32.435Z,99609.40
2019-04-25T19:44:36.023Z,99608.19
2019-04-25T19:47:41.356Z,99603.69
2019-04-25T19:50:45.900Z,99609.03
2019-04-25T19:53:49.409Z,99610.00
2019-04-25T19:56:52.815Z,99610.52
2019-04-25T19:59:56.403Z,99604.66
2019-04-25T20:03:09.447Z,99612.67
2019-04-25T20:06:34.889Z,99612.01
2019-04-25T20:10:03.565Z,99605.66
2019-04-25T20:13:08.170Z,99608.33
2019-04-25T20:16:12.130Z,99604.00
2019-04-25T20:19:15.560Z,99605.63
2019-04-25T20:22:19.071Z,99605.97
2019-04-25T20:25:22.592Z,99599.63
2019-04-25T20:28:26.088Z,99598.65
2019-04-25T20:31:29.655Z,99596.95
2019-04-25T20:34:33.075Z,99601.17
2019-04-25T20:37:36.577Z,99596.95
2019-04-25T20:40:40.077Z,99591.27
2019-04-25T20:43:43.582Z,99593.88
2019-04-25T20:46:47.080Z,99586.87
2019-04-25T20:49:51.503Z,99587.20
2019-04-25T20:52:55.079Z,99584.08
2019-04-25T20:55:58.508Z,99574.73
2019-04-25T20:59:01.996Z,99579.19
2019-04-25T21:02:07.431Z,99576.13
2019-04-25T21:05:10.849Z,99577.82
2019-04-25T21:08:14.244Z,99582.50
2019-04-25T21:11:17.676Z,99587.98
2019-04-25T21:14:27.004Z,99583.83
2019-04-25T21:17:36.161Z,99587.66
2019-04-25T21:20:39.616Z,99586.32
2019-04-25T21:23:43.032Z,99583.80
2019-04-25T21:26:46.632Z,99582.80
2019-04-25T21:29:50.023Z,99578.46
2019-04-25T21:32:55.546Z,99571.45
2019-04-25T21:36:05.127Z,99572.78
2019-04-25T21:39:14.983Z,99576.94
2019-04-25T21:42:35.134Z,99582.13
2019-04-25T21:45:38.768Z,99578.27
2019-04-25T21:48:42.461Z,99582.77
2019-04-25T21:51:45.994Z,99580.25
2019-04-25T21:54:49.461Z,99583.06
2019-04-25T21:57:53.597Z,99574.09
2019-04-25T22:01:15.659Z,99572.91
2019-04-25T22:04:19.114Z,99580.77
2019-04-25T22:07:23.055Z,99577.39
2019-04-25T22:10:28.799Z,99566.86
2019-04-25T22:13:32.322Z,99567.37
2019-04-25T22:16:37.099Z,99565.19
2019-04-25T22:19:40.934Z,99567.02
2019-04-25T22:22:44.858Z,99568.34
2019-04-25T22:25:48.339Z,99566.53
2019-04-25T22:28:52.046Z,99565.34
2019-04-25T22:32:08.984Z,99564.01
2019-04-25T22:35:20.461Z,99559.67
2019-04-25T22:38:25.079Z,99560.64
2019-04-25T22:41:29.479Z,99561.00
2019-04-25T22:44:34.431Z,99556.15
2019-04-25T22:47:38.157Z,99562.48
2019-04-25T22:50:41.646Z,99560.30
2019-04-25T22:53:46.670Z,99562.97
2019-04-25T22:56:50.169Z,99552.96
2019-04-25T22:59:53.784Z,99560.13
2019-04-25T23:03:05.375Z,99558.30
2019-04-25T23:06:09.651Z,99557.30
2019-04-25T23:09:13.551Z,99555.27
2019-04-25T23:12:17.045Z,99549.59
2019-04-25T23:15:20.688Z,99549.92
2019-04-25T23:18:24.702Z,99546.59
2019-04-25T23:21:28.292Z,99542.58
2019-04-25T23:24:34.537Z,99539.91
2019-04-25T23:28:03.669Z,99537.72
2019-04-25T23:31:15.141Z,99538.21
2019-04-25T23:34:18.743Z,99532.69
2019-04-25T23:37:22.320Z,99524.68
2019-04-25T23:40:25.817Z,99517.52
2019-04-25T23:43:29.751Z,99509.51
2019-04-25T23:46:33.310Z,99512.52
2019-04-25T23:49:36.981Z,99503.47
2019-04-25T23:52:40.746Z,99497.80
2019-04-25T23:55:44.176Z,99497.16
2019-04-25T23:58:47.618Z,99486.12
